Time;durP1;ratioP1;P1;durP2;ratioP2;P2;SDS_P1;SDS_P2;PMS_P1;PMS_P2;Temp;Humidity;BMP_temperature;BMP_pressure;BME280_temperature;BME280_humidity;BME280_pressure;Samples;Min_cycle;Max_cycle;Signal;HPM_P1;HPM_P2
2023/10/22 00:00:08;;;;;;;2.90;0.70;;;;;;;;;;5063783;28;20043;-83
2023/10/22 00:02:37;;;;;;;3.22;0.60;;;;;;;;;;5047353;28;20080;-84
2023/10/22 00:05:04;;;;;;;1.25;0.50;;;;;;;;;;5064985;28;20017;-82
2023/10/22 00:07:30;;;;;;;1.48;0.70;;;;;;;;;;5042429;28;20117;-82
2023/10/22 00:09:55;;;;;;;2.00;0.60;;;;;;;;;;5070555;28;20155;-81
2023/10/22 00:12:21;;;;;;;1.92;0.60;;;;;;;;;;5051136;28;20055;-82
2023/10/22 00:14:46;;;;;;;2.42;0.63;;;;;;;;;;5059687;28;20039;-81
2023/10/22 00:17:12;;;;;;;3.63;0.70;;;;;;;;;;5066057;28;20020;-81
2023/10/22 00:19:37;;;;;;;4.47;1.15;;;;;;;;;;5068217;28;20052;-81
2023/10/22 00:22:02;;;;;;;2.20;0.70;;;;;;;;;;5072348;28;20086;-81
2023/10/22 00:24:28;;;;;;;2.40;0.60;;;;;;;;;;5055558;28;20028;-81
2023/10/22 00:26:53;;;;;;;1.80;0.57;;;;;;;;;;5051257;28;20017;-81
2023/10/22 00:29:19;;;;;;;2.45;0.70;;;;;;;;;;5051680;28;20028;-81
2023/10/22 00:31:44;;;;;;;4.28;1.27;;;;;;;;;;5048156;28;20059;-82
2023/10/22 00:34:09;;;;;;;1.83;0.70;;;;;;;;;;5048616;28;20047;-82
2023/10/22 00:36:35;;;;;;;3.97;0.63;;;;;;;;;;5064597;28;20100;-81
2023/10/22 00:39:01;;;;;;;1.58;0.60;;;;;;;;;;5046636;28;20059;-81
2023/10/22 00:41:26;;;;;;;1.88;0.50;;;;;;;;;;5052777;28;20472;-81
2023/10/22 00:43:52;;;;;;;2.55;0.60;;;;;;;;;;5066310;28;20119;-81
2023/10/22 00:46:22;;;;;;;2.90;0.88;;;;;;;;;;5053062;28;20025;-81
2023/10/22 00:48:48;;;;;;;3.20;0.63;;;;;;;;;;5067645;28;20048;-81
2023/10/22 00:51:14;;;;;;;2.17;0.75;;;;;;;;;;5053484;28;20063;-81
2023/10/22 00:53:42;;;;;;;3.22;0.95;;;;;;;;;;5049932;28;20017;-83
2023/10/22 00:56:09;;;;;;;2.70;0.70;;;;;;;;;;5053757;28;20032;-82
2023/10/22 00:58:36;;;;;;;2.08;0.80;;;;;;;;;;5066597;28;20044;-81
2023/10/22 01:01:06;;;;;;;2.60;0.80;;;;;;;;;;5053333;28;20524;-81
2023/10/22 01:03:32;;;;;;;2.13;0.60;;;;;;;;;;5048420;28;20584;-81
2023/10/22 01:05:58;;;;;;;3.75;0.80;;;;;;;;;;5048660;28;20104;-81
2023/10/22 01:08:23;;;;;;;3.25;1.23;;;;;;;;;;5049765;28;20060;-82
2023/10/22 01:10:49;;;;;;;2.95;0.80;;;;;;;;;;5067673;28;20090;-81
2023/10/22 01:13:14;;;;;;;2.83;0.80;;;;;;;;;;5066048;28;20020;-81
2023/10/22 01:15:40;;;;;;;2.42;0.80;;;;;;;;;;5044583;28;20027;-82
2023/10/22 01:18:06;;;;;;;3.55;0.90;;;;;;;;;;5049022;28;20036;-81
2023/10/22 01:20:32;;;;;;;3.47;0.90;;;;;;;;;;5051330;28;20068;-81
2023/10/22 01:22:57;;;;;;;2.60;0.80;;;;;;;;;;5052297;28;20024;-83
2023/10/22 01:25:23;;;;;;;2.20;0.80;;;;;;;;;;5064912;28;20460;-84
2023/10/22 01:27:48;;;;;;;2.97;0.80;;;;;;;;;;5053954;28;20094;-83
2023/10/22 01:30:14;;;;;;;2.50;0.88;;;;;;;;;;5050153;28;20029;-83
2023/10/22 01:32:39;;;;;;;2.60;0.85;;;;;;;;;;5068920;28;21015;-83
2023/10/22 01:35:05;;;;;;;1.92;0.60;;;;;;;;;;5051345;28;20055;-84
2023/10/22 01:37:33;;;;;;;4.07;0.90;;;;;;;;;;5068868;28;20075;-83
2023/10/22 01:39:59;;;;;;;3.55;0.80;;;;;;;;;;5071770;28;20043;-83
2023/10/22 01:42:25;;;;;;;1.92;0.68;;;;;;;;;;5047104;28;20024;-84
2023/10/22 01:44:50;;;;;;;2.65;0.90;;;;;;;;;;5049857;28;20048;-83
2023/10/22 01:47:16;;;;;;;2.83;0.95;;;;;;;;;;5070290;28;20032;-83
2023/10/22 01:49:42;;;;;;;3.05;0.80;;;;;;;;;;5049949;28;21691;-84
2023/10/22 01:52:07;;;;;;;4.35;1.08;;;;;;;;;;5048566;28;20040;-83
2023/10/22 01:54:32;;;;;;;3.42;0.80;;;;;;;;;;5070388;28;20056;-83
2023/10/22 01:56:58;;;;;;;2.35;0.82;;;;;;;;;;5049922;28;20073;-83
2023/10/22 01:59:23;;;;;;;2.72;0.90;;;;;;;;;;5052610;28;20020;-83
2023/10/22 02:01:48;;;;;;;2.65;1.00;;;;;;;;;;5053878;28;20039;-83
2023/10/22 02:04:14;;;;;;;3.42;1.17;;;;;;;;;;5047563;28;20047;-83
2023/10/22 02:06:39;;;;;;;3.92;0.90;;;;;;;;;;5049941;28;20111;-84
2023/10/22 02:09:05;;;;;;;3.30;1.05;;;;;;;;;;5054590;28;20039;-83
2023/10/22 02:11:31;;;;;;;3.03;1.00;;;;;;;;;;5053067;28;20056;-85
2023/10/22 02:13:56;;;;;;;3.17;1.00;;;;;;;;;;5065132;28;20041;-85
2023/10/22 02:16:23;;;;;;;3.67;0.90;;;;;;;;;;5071339;28;20029;-85
2023/10/22 02:18:48;;;;;;;6.32;1.33;;;;;;;;;;5063677;28;20408;-84
2023/10/22 02:21:14;;;;;;;4.18;1.00;;;;;;;;;;5048340;28;20031;-84
2023/10/22 02:23:39;;;;;;;2.08;0.88;;;;;;;;;;5050336;28;20174;-81
2023/10/22 02:26:05;;;;;;;4.63;1.25;;;;;;;;;;5047678;28;20480;-80
2023/10/22 02:28:32;;;;;;;3.00;1.20;;;;;;;;;;5047950;28;20117;-82
2023/10/22 02:30:58;;;;;;;3.00;1.13;;;;;;;;;;5064194;28;20024;-81
2023/10/22 02:33:23;;;;;;;2.67;1.13;;;;;;;;;;5046143;28;20030;-81
2023/10/22 02:35:49;;;;;;;2.45;1.08;;;;;;;;;;5063150;28;20038;-82
2023/10/22 02:38:16;;;;;;;4.00;1.10;;;;;;;;;;5045381;28;20024;-81
2023/10/22 02:40:42;;;;;;;5.50;1.30;;;;;;;;;;5062008;28;20033;-81
2023/10/22 02:43:08;;;;;;;2.30;1.17;;;;;;;;;;5047366;28;20226;-81
2023/10/22 02:45:33;;;;;;;3.15;1.23;;;;;;;;;;5065622;28;20100;-81
2023/10/22 02:47:59;;;;;;;4.28;1.30;;;;;;;;;;5046544;28;20035;-82
2023/10/22 02:50:26;;;;;;;2.20;1.10;;;;;;;;;;5067976;28;20032;-82
2023/10/22 02:52:52;;;;;;;1.60;1.10;;;;;;;;;;5056783;28;20023;-81
2023/10/22 02:55:17;;;;;;;4.30;1.35;;;;;;;;;;5044682;28;20108;-81
2023/10/22 02:57:43;;;;;;;4.43;1.33;;;;;;;;;;5069176;28;20178;-82
2023/10/22 03:00:12;;;;;;;3.50;1.20;;;;;;;;;;5047282;28;20032;-82
2023/10/22 03:02:39;;;;;;;5.72;1.50;;;;;;;;;;5047809;28;20037;-81
2023/10/22 03:05:05;;;;;;;3.63;1.25;;;;;;;;;;5058633;28;20109;-83
2023/10/22 03:07:30;;;;;;;3.85;1.33;;;;;;;;;;5048061;28;20115;-81
2023/10/22 03:09:55;;;;;;;5.10;1.50;;;;;;;;;;5064979;28;20097;-81
2023/10/22 03:12:21;;;;;;;7.13;1.48;;;;;;;;;;5061519;28;20028;-81
2023/10/22 03:14:48;;;;;;;5.30;1.40;;;;;;;;;;5061254;28;20033;-83
2023/10/22 03:17:13;;;;;;;4.00;1.27;;;;;;;;;;5046956;28;20052;-82
2023/10/22 03:19:39;;;;;;;3.70;1.60;;;;;;;;;;5044644;28;20144;-82
2023/10/22 03:22:04;;;;;;;5.45;1.52;;;;;;;;;;5061785;28;20170;-81
2023/10/22 03:24:30;;;;;;;3.70;1.50;;;;;;;;;;5061712;28;20036;-80
2023/10/22 03:26:56;;;;;;;3.08;1.50;;;;;;;;;;5043552;28;20551;-82
2023/10/22 03:29:21;;;;;;;4.47;1.63;;;;;;;;;;5062733;28;20111;-81
2023/10/22 03:31:47;;;;;;;3.85;1.75;;;;;;;;;;5065728;28;20040;-85
2023/10/22 03:34:12;;;;;;;3.13;1.67;;;;;;;;;;5064245;28;20059;-85
2023/10/22 03:36:39;;;;;;;3.72;1.70;;;;;;;;;;5061437;28;20554;-81
2023/10/22 03:39:06;;;;;;;3.47;1.67;;;;;;;;;;5067384;28;20028;-81
2023/10/22 03:41:31;;;;;;;4.05;1.80;;;;;;;;;;5064088;28;20405;-87
2023/10/22 03:43:56;;;;;;;3.35;1.80;;;;;;;;;;5067709;28;20020;-89
2023/10/22 03:46:22;;;;;;;4.05;2.10;;;;;;;;;;5051408;28;20443;-90
2023/10/22 03:48:47;;;;;;;3.55;2.10;;;;;;;;;;5048668;28;20021;-88
2023/10/22 03:51:12;;;;;;;5.07;2.28;;;;;;;;;;5068306;28;20048;-87
2023/10/22 03:53:38;;;;;;;3.83;2.45;;;;;;;;;;5051863;28;20029;-88
2023/10/22 03:56:03;;;;;;;5.90;2.40;;;;;;;;;;5068979;28;20380;-88
2023/10/22 03:58:29;;;;;;;4.18;2.60;;;;;;;;;;5049572;28;20051;-89
2023/10/22 04:00:57;;;;;;;4.20;2.88;;;;;;;;;;5065236;28;20032;-89
2023/10/22 04:03:23;;;;;;;4.97;2.50;;;;;;;;;;5050670;28;20140;-86
2023/10/22 04:05:55;;;;;;;6.78;3.20;;;;;;;;;;5064662;28;21276;-88
2023/10/22 04:08:21;;;;;;;;;;;;;;;;;;5046493;28;20111;-90
2023/10/22 04:10:47;;;;;;;5.10;3.00;;;;;;;;;;5048195;28;20570;-87
2023/10/22 04:13:12;;;;;;;5.13;3.20;;;;;;;;;;5067401;28;20029;-87
2023/10/22 04:15:38;;;;;;;5.47;3.20;;;;;;;;;;5049347;28;20028;-89
2023/10/22 04:18:04;;;;;;;5.47;3.25;;;;;;;;;;5050526;28;20373;-88
2023/10/22 04:20:33;;;;;;;6.47;3.65;;;;;;;;;;5048801;28;20035;-88
2023/10/22 04:22:58;;;;;;;5.75;3.78;;;;;;;;;;5071045;28;20020;-89
2023/10/22 04:25:24;;;;;;;4.88;3.58;;;;;;;;;;5066373;28;20427;-88
2023/10/22 04:27:49;;;;;;;6.70;4.28;;;;;;;;;;5052720;28;20078;-89
2023/10/22 04:30:14;;;;;;;5.30;3.65;;;;;;;;;;5049955;28;20032;-85
2023/10/22 04:32:40;;;;;;;5.53;4.05;;;;;;;;;;5054472;28;20060;-89
2023/10/22 04:35:06;;;;;;;5.10;3.92;;;;;;;;;;5066301;28;20534;-90
2023/10/22 04:37:31;;;;;;;6.10;3.90;;;;;;;;;;5071946;28;20074;-90
2023/10/22 04:39:57;;;;;;;6.30;3.75;;;;;;;;;;5053114;28;20020;-89
2023/10/22 04:42:24;;;;;;;6.60;4.20;;;;;;;;;;5054328;28;20465;-90
2023/10/22 04:44:49;;;;;;;6.55;4.30;;;;;;;;;;5072152;28;20017;-90
2023/10/22 04:47:15;;;;;;;7.40;4.65;;;;;;;;;;5068611;28;20021;-90
2023/10/22 04:49:42;;;;;;;5.63;4.22;;;;;;;;;;5069024;28;20017;-90
2023/10/22 04:52:10;;;;;;;6.70;3.90;;;;;;;;;;5067016;28;20039;-86
2023/10/22 04:54:35;;;;;;;8.40;3.88;;;;;;;;;;5048294;28;20366;-85
2023/10/22 04:57:02;;;;;;;8.18;4.05;;;;;;;;;;5049365;28;20039;-85
2023/10/22 04:59:28;;;;;;;6.07;3.85;;;;;;;;;;5041678;28;20377;-86
2023/10/22 05:01:53;;;;;;;6.75;3.78;;;;;;;;;;5062871;28;20305;-86
2023/10/22 05:04:19;;;;;;;7.68;4.35;;;;;;;;;;5067020;28;20052;-85
2023/10/22 05:06:45;;;;;;;6.60;3.97;;;;;;;;;;5051063;28;20020;-86
2023/10/22 05:09:10;;;;;;;7.00;4.00;;;;;;;;;;5067564;28;20034;-85
2023/10/22 05:11:35;;;;;;;5.68;3.97;;;;;;;;;;5068930;28;20032;-85
2023/10/22 05:14:01;;;;;;;6.22;4.45;;;;;;;;;;5070520;28;20020;-86
2023/10/22 05:16:27;;;;;;;6.95;3.90;;;;;;;;;;5068112;28;20040;-86
2023/10/22 05:18:53;;;;;;;6.07;4.00;;;;;;;;;;5063518;28;20035;-86
2023/10/22 05:21:18;;;;;;;8.68;3.88;;;;;;;;;;5066251;28;20048;-86
2023/10/22 05:23:44;;;;;;;6.88;3.90;;;;;;;;;;5068545;28;20071;-84
2023/10/22 05:26:11;;;;;;;8.23;3.97;;;;;;;;;;5049526;28;20028;-86
2023/10/22 05:28:37;;;;;;;7.32;4.13;;;;;;;;;;5050586;28;20090;-86
2023/10/22 05:31:14;;;;;;;5.55;3.85;;;;;;;;;;5053247;28;20110;-86
2023/10/22 05:33:41;;;;;;;6.50;3.83;;;;;;;;;;5068670;28;20383;-86
2023/10/22 05:36:20;;;;;;;5.63;3.67;;;;;;;;;;5065537;28;20032;-85
2023/10/22 05:38:47;;;;;;;9.45;4.00;;;;;;;;;;5048697;28;20032;-87
2023/10/22 05:41:23;;;;;;;4.85;3.30;;;;;;;;;;5047148;28;20036;-86
2023/10/22 05:43:50;;;;;;;6.32;3.60;;;;;;;;;;5062412;28;20025;-85
2023/10/22 05:46:16;;;;;;;6.03;3.60;;;;;;;;;;5044623;28;20028;-86
2023/10/22 05:48:41;;;;;;;6.50;4.03;;;;;;;;;;5050000;28;20093;-86
2023/10/22 05:51:06;;;;;;;5.72;3.90;;;;;;;;;;5068262;28;20458;-85
2023/10/22 05:53:32;;;;;;;4.95;3.33;;;;;;;;;;5073869;28;20031;-86
2023/10/22 05:55:58;;;;;;;6.43;3.60;;;;;;;;;;5064751;28;20419;-86
2023/10/22 05:58:26;;;;;;;6.28;3.50;;;;;;;;;;5069810;28;20040;-86
2023/10/22 06:00:53;;;;;;;6.32;3.63;;;;;;;;;;5080618;28;20491;-86
2023/10/22 06:03:18;;;;;;;7.18;3.78;;;;;;;;;;5073418;28;20048;-83
2023/10/22 06:05:44;;;;;;;8.05;3.70;;;;;;;;;;5054694;28;20040;-83
2023/10/22 06:08:10;;;;;;;5.60;3.65;;;;;;;;;;5046412;28;20033;-84
2023/10/22 06:10:40;;;;;;;4.72;3.10;;;;;;;;;;5051817;28;20117;-83
2023/10/22 06:13:05;;;;;;;5.93;3.35;;;;;;;;;;5064925;28;20025;-84
2023/10/22 06:15:30;;;;;;;6.15;3.50;;;;;;;;;;5049993;28;20035;-90
2023/10/22 06:17:56;;;;;;;8.77;3.40;;;;;;;;;;5067950;28;20040;-91
2023/10/22 06:20:22;;;;;;;4.60;3.05;;;;;;;;;;5051450;28;20032;-90
2023/10/22 06:22:50;;;;;;;6.05;3.35;;;;;;;;;;5068788;28;20035;-88
2023/10/22 06:25:15;;;;;;;5.63;2.63;;;;;;;;;;5072291;28;20512;-90
2023/10/22 06:27:41;;;;;;;6.30;3.00;;;;;;;;;;5072240;28;20029;-90
2023/10/22 06:30:07;;;;;;;5.15;2.65;;;;;;;;;;5053222;28;21737;-88
2023/10/22 06:32:32;;;;;;;5.65;2.88;;;;;;;;;;5065787;28;20040;-90
2023/10/22 06:34:57;;;;;;;5.63;3.00;;;;;;;;;;5056217;28;20028;-90
2023/10/22 06:37:23;;;;;;;5.57;2.85;;;;;;;;;;5072266;28;20107;-89
2023/10/22 06:39:51;;;;;;;7.05;2.97;;;;;;;;;;5071848;28;20047;-89
2023/10/22 06:42:16;;;;;;;5.30;2.78;;;;;;;;;;5067669;28;20037;-90
2023/10/22 06:44:43;;;;;;;7.53;3.15;;;;;;;;;;5047097;28;20045;-83
2023/10/22 06:47:09;;;;;;;6.70;3.03;;;;;;;;;;5048096;28;20032;-83
2023/10/22 06:49:34;;;;;;;5.13;2.50;;;;;;;;;;5047877;28;20081;-83
2023/10/22 06:51:59;;;;;;;5.47;2.45;;;;;;;;;;5064486;28;20028;-83
2023/10/22 06:54:25;;;;;;;5.97;2.50;;;;;;;;;;5048460;28;20111;-83
2023/10/22 06:56:54;;;;;;;4.32;2.40;;;;;;;;;;5043768;28;20024;-83
2023/10/22 06:59:24;;;;;;;5.20;2.88;;;;;;;;;;5057672;28;20992;-83
2023/10/22 07:01:50;;;;;;;5.30;2.50;;;;;;;;;;5063536;28;20036;-83
2023/10/22 07:04:15;;;;;;;5.65;2.58;;;;;;;;;;5045101;28;20044;-83
2023/10/22 07:06:40;;;;;;;5.05;2.55;;;;;;;;;;5049754;28;20463;-81
2023/10/22 07:09:06;;;;;;;5.28;2.33;;;;;;;;;;5043955;28;20048;-81
2023/10/22 07:11:38;;;;;;;5.13;2.08;;;;;;;;;;5054786;28;20032;-84
2023/10/22 07:14:04;;;;;;;3.45;2.05;;;;;;;;;;5069220;28;20020;-84
2023/10/22 07:16:32;;;;;;;5.10;2.20;;;;;;;;;;5059681;28;20493;-85
2023/10/22 07:19:00;;;;;;;4.65;2.08;;;;;;;;;;5048909;28;20622;-87
2023/10/22 07:21:27;;;;;;;5.20;2.35;;;;;;;;;;5046223;28;20029;-88
2023/10/22 07:23:52;;;;;;;4.25;2.30;;;;;;;;;;5064260;28;20024;-89
2023/10/22 07:26:18;;;;;;;3.40;1.98;;;;;;;;;;5052272;28;20039;-89
2023/10/22 07:28:45;;;;;;;5.40;2.50;;;;;;;;;;5052402;28;20027;-89
2023/10/22 07:31:12;;;;;;;6.15;2.20;;;;;;;;;;5055114;28;20032;-87
2023/10/22 07:33:40;;;;;;;3.88;2.33;;;;;;;;;;5057380;28;20028;-87
2023/10/22 07:36:07;;;;;;;7.00;2.30;;;;;;;;;;5056281;28;20032;-89
2023/10/22 07:38:33;;;;;;;4.75;2.20;;;;;;;;;;5057564;28;20124;-91
2023/10/22 07:41:14;;;;;;;5.75;2.30;;;;;;;;;;5056133;28;20040;-91
2023/10/22 07:43:40;;;;;;;4.80;2.30;;;;;;;;;;5050766;28;20096;-90
2023/10/22 07:46:05;;;;;;;4.05;2.20;;;;;;;;;;5052686;28;20120;-91
2023/10/22 07:48:32;;;;;;;4.47;1.92;;;;;;;;;;5068356;28;20028;-90
2023/10/22 07:51:26;;;;;;;4.53;2.22;;;;;;;;;;5047170;28;20343;-88
2023/10/22 07:53:51;;;;;;;4.47;2.10;;;;;;;;;;5063357;28;20151;-87
2023/10/22 07:56:20;;;;;;;4.25;2.15;;;;;;;;;;5065219;28;20116;-85
2023/10/22 07:58:46;;;;;;;5.70;2.20;;;;;;;;;;5044464;28;20048;-86
2023/10/22 08:01:11;;;;;;;5.43;2.45;;;;;;;;;;5049372;28;20059;-83
2023/10/22 08:03:37;;;;;;;6.18;2.28;;;;;;;;;;5046934;28;20023;-82
2023/10/22 08:06:04;;;;;;;7.43;2.10;;;;;;;;;;5049088;28;20562;-81
2023/10/22 08:08:30;;;;;;;4.88;1.98;;;;;;;;;;5051334;28;20035;-83
2023/10/22 08:10:57;;;;;;;3.33;1.80;;;;;;;;;;5065356;28;20033;-82
2023/10/22 08:13:22;;;;;;;5.93;2.38;;;;;;;;;;5064681;28;20034;-84
2023/10/22 08:15:48;;;;;;;3.92;1.77;;;;;;;;;;5062333;28;20512;-82
2023/10/22 08:18:13;;;;;;;5.10;2.03;;;;;;;;;;5055813;28;20415;-82
2023/10/22 08:20:39;;;;;;;4.78;2.17;;;;;;;;;;5043114;28;20461;-82
2023/10/22 08:23:04;;;;;;;5.13;1.95;;;;;;;;;;5039676;28;20032;-86
2023/10/22 08:25:29;;;;;;;4.20;1.88;;;;;;;;;;5052862;28;20020;-86
2023/10/22 08:27:55;;;;;;;3.85;1.48;;;;;;;;;;5052604;28;20028;-86
2023/10/22 08:30:21;;;;;;;2.45;1.70;;;;;;;;;;5062572;28;20096;-86
2023/10/22 08:32:47;;;;;;;2.83;1.40;;;;;;;;;;5060799;28;20025;-87
2023/10/22 08:35:13;;;;;;;3.08;1.60;;;;;;;;;;5047813;28;20032;-86
2023/10/22 08:37:39;;;;;;;3.72;1.70;;;;;;;;;;5055443;28;20558;-86
2023/10/22 08:40:08;;;;;;;7.63;1.80;;;;;;;;;;5050408;28;20064;-87
2023/10/22 08:42:35;;;;;;;3.80;1.80;;;;;;;;;;5051809;28;20024;-83
2023/10/22 08:45:05;;;;;;;3.55;1.70;;;;;;;;;;5054555;28;20020;-82
2023/10/22 08:47:31;;;;;;;7.35;2.10;;;;;;;;;;5067245;28;20028;-82
2023/10/22 08:50:00;;;;;;;6.65;1.92;;;;;;;;;;5065242;28;20435;-81
2023/10/22 08:52:27;;;;;;;4.22;1.70;;;;;;;;;;5070310;28;20039;-82
2023/10/22 08:54:52;;;;;;;6.15;1.80;;;;;;;;;;5069077;28;20597;-82
2023/10/22 08:57:21;;;;;;;4.93;2.05;;;;;;;;;;5073013;28;20112;-82
2023/10/22 08:59:47;;;;;;;5.40;1.70;;;;;;;;;;5052008;28;20082;-82
2023/10/22 09:02:14;;;;;;;4.00;1.80;;;;;;;;;;5075215;28;20028;-82
2023/10/22 09:04:39;;;;;;;3.80;1.80;;;;;;;;;;5056320;28;20541;-82
2023/10/22 09:07:05;;;;;;;3.60;1.90;;;;;;;;;;5061611;28;20037;-82
2023/10/22 09:09:38;;;;;;;6.30;2.08;;;;;;;;;;5066337;28;20021;-83
2023/10/22 09:12:08;;;;;;;3.30;1.75;;;;;;;;;;5047599;28;20028;-84
2023/10/22 09:14:34;;;;;;;4.22;1.70;;;;;;;;;;5057492;28;20024;-84
2023/10/22 09:17:15;;;;;;;4.20;2.20;;;;;;;;;;5054950;28;20373;-84
2023/10/22 09:19:40;;;;;;;4.63;2.10;;;;;;;;;;5046939;28;20499;-84
2023/10/22 09:22:06;;;;;;;4.03;1.92;;;;;;;;;;5049882;28;20025;-84
2023/10/22 09:24:51;;;;;;;5.25;2.20;;;;;;;;;;5055263;28;20032;-84
2023/10/22 09:27:28;;;;;;;5.00;2.00;;;;;;;;;;5042205;28;20499;-84
2023/10/22 09:29:55;;;;;;;5.97;2.42;;;;;;;;;;5058303;28;20028;-84
2023/10/22 09:32:20;;;;;;;5.05;2.20;;;;;;;;;;5044728;28;20021;-85
2023/10/22 09:34:46;;;;;;;5.00;2.15;;;;;;;;;;5046095;28;20791;-84
2023/10/22 09:37:12;;;;;;;5.63;2.45;;;;;;;;;;5050125;28;20468;-84
2023/10/22 09:39:39;;;;;;;4.38;1.90;;;;;;;;;;5045840;28;20104;-84
2023/10/22 09:42:06;;;;;;;5.07;2.00;;;;;;;;;;5053211;28;20509;-81
2023/10/22 09:44:32;;;;;;;5.57;1.90;;;;;;;;;;5048019;28;20132;-82
2023/10/22 09:47:00;;;;;;;4.93;1.98;;;;;;;;;;5067468;28;20028;-82
2023/10/22 09:49:27;;;;;;;3.50;1.92;;;;;;;;;;5051675;28;20082;-82
2023/10/22 09:51:56;;;;;;;3.70;2.10;;;;;;;;;;5049100;28;20036;-82
2023/10/22 09:54:26;;;;;;;6.00;2.22;;;;;;;;;;5050855;28;20028;-82
2023/10/22 09:56:52;;;;;;;5.57;2.10;;;;;;;;;;5057466;28;20036;-89
2023/10/22 09:59:22;;;;;;;4.35;1.52;;;;;;;;;;5056936;28;20020;-90
2023/10/22 10:01:48;;;;;;;3.22;1.70;;;;;;;;;;5073118;28;20032;-89
2023/10/22 10:04:13;;;;;;;5.68;2.00;;;;;;;;;;5079722;28;20060;-91
2023/10/22 10:06:40;;;;;;;5.70;2.05;;;;;;;;;;5074834;28;20044;-91
2023/10/22 10:09:07;;;;;;;3.60;1.80;;;;;;;;;;5062509;28;20035;-90
2023/10/22 10:11:34;;;;;;;3.75;1.70;;;;;;;;;;5065413;28;20035;-90
2023/10/22 10:14:33;;;;;;;3.38;1.90;;;;;;;;;;5085722;28;20020;-90
2023/10/22 10:17:01;;;;;;;3.15;1.95;;;;;;;;;;5060075;28;20021;-90
2023/10/22 10:19:27;;;;;;;5.45;2.13;;;;;;;;;;5061413;28;20406;-90
2023/10/22 10:21:53;;;;;;;6.18;2.40;;;;;;;;;;5054036;28;20032;-86
2023/10/22 10:24:26;;;;;;;4.75;2.00;;;;;;;;;;5044778;28;20027;-87
2023/10/22 10:27:11;;;;;;;4.70;2.20;;;;;;;;;;5065882;28;20032;-86
2023/10/22 10:29:37;;;;;;;4.95;2.15;;;;;;;;;;5066437;28;20090;-86
2023/10/22 10:32:12;;;;;;;6.35;2.60;;;;;;;;;;5048501;28;20434;-86
2023/10/22 10:34:39;;;;;;;7.10;2.80;;;;;;;;;;5051422;28;20024;-87
2023/10/22 10:37:19;;;;;;;5.47;2.50;;;;;;;;;;5050291;28;20127;-87
2023/10/22 10:39:46;;;;;;;4.53;2.60;;;;;;;;;;5069601;28;20480;-87
2023/10/22 10:42:13;;;;;;;4.50;2.60;;;;;;;;;;5048952;28;20456;-86
2023/10/22 10:44:54;;;;;;;6.10;3.05;;;;;;;;;;5052316;28;20036;-86
2023/10/22 10:47:22;;;;;;;8.55;3.17;;;;;;;;;;5066852;28;20024;-86
2023/10/22 10:50:10;;;;;;;7.28;3.22;;;;;;;;;;5046063;28;20017;-87
2023/10/22 10:52:38;;;;;;;5.50;3.28;;;;;;;;;;5054039;28;20469;-85
2023/10/22 10:55:07;;;;;;;6.10;3.58;;;;;;;;;;5049658;28;20126;-87
2023/10/22 10:57:37;;;;;;;6.35;3.17;;;;;;;;;;5068365;28;20032;-86
2023/10/22 11:00:04;;;;;;;6.30;3.40;;;;;;;;;;5044687;28;20031;-86
2023/10/22 11:02:41;;;;;;;7.30;3.00;;;;;;;;;;5050213;28;20077;-87
2023/10/22 11:05:08;;;;;;;6.03;3.83;;;;;;;;;;5061736;28;20029;-86
2023/10/22 11:07:34;;;;;;;5.40;3.35;;;;;;;;;;5066113;28;20081;-87
2023/10/22 11:10:09;;;;;;;6.20;3.53;;;;;;;;;;5040641;28;20108;-86
2023/10/22 11:12:38;;;;;;;5.40;3.28;;;;;;;;;;5048033;28;20032;-87
2023/10/22 11:15:05;;;;;;;4.78;3.08;;;;;;;;;;5058329;28;20025;-86
2023/10/22 11:17:31;;;;;;;4.13;3.40;;;;;;;;;;5041661;28;20476;-86
2023/10/22 11:19:57;;;;;;;5.97;3.22;;;;;;;;;;5063183;28;20028;-87
2023/10/22 11:22:23;;;;;;;7.18;4.57;;;;;;;;;;5049163;28;20029;-85
2023/10/22 11:24:51;;;;;;;5.90;4.10;;;;;;;;;;5041515;28;20035;-86
2023/10/22 11:27:16;;;;;;;5.63;3.47;;;;;;;;;;5056491;28;20025;-82
2023/10/22 11:29:43;;;;;;;5.55;3.50;;;;;;;;;;5067291;28;20032;-83
2023/10/22 11:32:13;;;;;;;4.78;3.40;;;;;;;;;;5071535;28;20032;-83
2023/10/22 11:35:02;;;;;;;5.95;3.10;;;;;;;;;;5060968;28;20025;-82
2023/10/22 11:37:42;;;;;;;5.28;2.72;;;;;;;;;;5053879;28;20033;-91
2023/10/22 11:40:27;;;;;;;5.53;3.35;;;;;;;;;;5075112;28;20025;-91
2023/10/22 11:42:53;;;;;;;6.43;3.50;;;;;;;;;;5075386;28;20059;-90
2023/10/22 11:45:19;;;;;;;6.97;2.92;;;;;;;;;;5054274;28;20043;-91
2023/10/22 11:47:45;;;;;;;6.75;3.47;;;;;;;;;;5076802;28;20096;-91
2023/10/22 11:50:13;;;;;;;6.07;2.95;;;;;;;;;;5073745;28;20048;-89
2023/10/22 11:52:51;;;;;;;7.75;3.20;;;;;;;;;;5064500;28;20499;-91
2023/10/22 11:55:17;;;;;;;5.43;3.08;;;;;;;;;;5079177;28;20392;-90
2023/10/22 11:57:44;;;;;;;4.43;3.10;;;;;;;;;;5082689;28;20032;-91
2023/10/22 12:00:09;;;;;;;4.82;2.75;;;;;;;;;;5070098;28;20029;-90
2023/10/22 12:02:35;;;;;;;4.35;2.38;;;;;;;;;;5068251;28;20113;-87
2023/10/22 12:05:01;;;;;;;4.88;2.40;;;;;;;;;;5058081;28;20020;-87
2023/10/22 12:07:27;;;;;;;4.80;2.60;;;;;;;;;;5050585;28;20547;-86
2023/10/22 12:09:52;;;;;;;3.65;2.35;;;;;;;;;;5064522;28;20021;-82
2023/10/22 12:12:17;;;;;;;4.72;2.38;;;;;;;;;;5068859;28;20032;-90
2023/10/22 12:14:43;;;;;;;3.78;2.38;;;;;;;;;;5070188;28;20029;-90
2023/10/22 12:17:09;;;;;;;3.83;2.13;;;;;;;;;;5055927;28;20135;-90
2023/10/22 12:19:34;;;;;;;5.97;2.40;;;;;;;;;;5075781;28;20087;-91
2023/10/22 12:22:00;;;;;;;4.45;1.83;;;;;;;;;;5073142;28;20104;-91
2023/10/22 12:24:26;;;;;;;4.13;2.30;;;;;;;;;;5057318;28;20036;-90
2023/10/22 12:26:51;;;;;;;5.20;1.65;;;;;;;;;;5078615;28;20396;-87
2023/10/22 12:29:17;;;;;;;3.15;1.73;;;;;;;;;;5058732;28;20028;-91
2023/10/22 12:31:42;;;;;;;5.75;1.63;;;;;;;;;;5068892;28;20036;-90
2023/10/22 12:34:08;;;;;;;3.30;1.90;;;;;;;;;;5076897;28;20076;-87
2023/10/22 12:36:34;;;;;;;2.90;1.40;;;;;;;;;;5059105;28;20111;-91
2023/10/22 12:39:00;;;;;;;3.42;1.42;;;;;;;;;;5079093;28;20020;-91
2023/10/22 12:41:26;;;;;;;3.40;1.52;;;;;;;;;;5060293;28;20055;-92
2023/10/22 12:43:51;;;;;;;3.42;1.17;;;;;;;;;;5074322;28;20021;-91
2023/10/22 12:46:17;;;;;;;2.85;1.35;;;;;;;;;;5076114;28;20026;-92
2023/10/22 12:48:43;;;;;;;3.50;1.10;;;;;;;;;;5056334;28;20039;-91
2023/10/22 12:51:08;;;;;;;2.75;1.15;;;;;;;;;;5063273;28;20028;-91
2023/10/22 12:53:36;;;;;;;2.10;0.95;;;;;;;;;;5066261;28;20027;-90
2023/10/22 12:56:02;;;;;;;2.55;1.15;;;;;;;;;;5080637;28;20421;-90
2023/10/22 12:58:28;;;;;;;3.50;1.20;;;;;;;;;;5060898;28;20468;-85
2023/10/22 13:00:53;;;;;;;2.88;1.10;;;;;;;;;;5056298;28;20032;-87
2023/10/22 13:03:19;;;;;;;3.00;1.50;;;;;;;;;;5068058;28;20032;-86
2023/10/22 13:05:44;;;;;;;2.90;1.20;;;;;;;;;;5065746;28;20058;-87
2023/10/22 13:08:12;;;;;;;3.42;1.50;;;;;;;;;;5069996;28;20077;-86
2023/10/22 13:10:58;;;;;;;4.25;2.38;;;;;;;;;;5068737;28;20024;-87
2023/10/22 13:13:23;;;;;;;4.32;2.80;;;;;;;;;;5051631;28;20032;-86
2023/10/22 13:15:49;;;;;;;3.50;1.67;;;;;;;;;;5046380;28;20020;-87
2023/10/22 13:18:15;;;;;;;4.40;2.70;;;;;;;;;;5050541;28;20473;-87
2023/10/22 13:20:40;;;;;;;4.60;3.38;;;;;;;;;;5058230;28;20074;-86
2023/10/22 13:23:06;;;;;;;3.65;1.58;;;;;;;;;;5073227;28;20040;-82
2023/10/22 13:25:31;;;;;;;2.65;1.35;;;;;;;;;;5068509;28;20028;-81
2023/10/22 13:27:56;;;;;;;3.55;1.30;;;;;;;;;;5051687;28;20029;-82
2023/10/22 13:30:22;;;;;;;2.22;1.13;;;;;;;;;;5044776;28;20031;-81
2023/10/22 13:32:47;;;;;;;3.25;1.20;;;;;;;;;;5061925;28;20028;-88
2023/10/22 13:35:13;;;;;;;2.33;0.93;;;;;;;;;;5052718;28;20028;-90
2023/10/22 13:37:38;;;;;;;2.10;1.00;;;;;;;;;;5076624;28;20024;-89
2023/10/22 13:40:04;;;;;;;2.08;1.00;;;;;;;;;;5053555;28;20027;-89
2023/10/22 13:42:30;;;;;;;2.97;1.10;;;;;;;;;;5072233;28;20017;-90
2023/10/22 13:44:55;;;;;;;3.17;1.00;;;;;;;;;;5077977;28;20016;-90
2023/10/22 13:47:21;;;;;;;1.90;0.90;;;;;;;;;;5066746;28;20070;-89
2023/10/22 13:49:48;;;;;;;2.75;1.05;;;;;;;;;;5059217;28;20032;-88
2023/10/22 13:52:13;;;;;;;2.25;0.88;;;;;;;;;;5080481;28;20036;-88
2023/10/22 13:54:39;;;;;;;1.63;0.90;;;;;;;;;;5059626;28;20084;-89
2023/10/22 13:57:06;;;;;;;2.97;1.00;;;;;;;;;;5067348;28;20054;-89
2023/10/22 13:59:33;;;;;;;2.88;1.00;;;;;;;;;;5049306;28;20115;-88
2023/10/22 14:01:59;;;;;;;4.68;1.27;;;;;;;;;;5055279;28;20039;-86
2023/10/22 14:04:24;;;;;;;5.50;1.40;;;;;;;;;;5048779;28;20033;-89
2023/10/22 14:06:49;;;;;;;4.65;1.30;;;;;;;;;;5065181;28;20052;-88
2023/10/22 14:09:16;;;;;;;1.88;1.40;;;;;;;;;;5044802;28;20036;-88
2023/10/22 14:11:41;;;;;;;2.15;1.17;;;;;;;;;;5049882;28;20475;-84
2023/10/22 14:14:07;;;;;;;2.35;1.27;;;;;;;;;;5069025;28;20052;-89
2023/10/22 14:16:33;;;;;;;2.50;1.50;;;;;;;;;;5056230;28;20071;-82
2023/10/22 14:18:59;;;;;;;3.17;1.60;;;;;;;;;;5046355;28;20029;-82
2023/10/22 14:21:24;;;;;;;4.22;1.77;;;;;;;;;;5044896;28;20025;-82
2023/10/22 14:23:49;;;;;;;3.10;2.03;;;;;;;;;;5067173;28;20036;-82
2023/10/22 14:26:15;;;;;;;5.00;3.10;;;;;;;;;;5072541;28;20026;-83
2023/10/22 14:28:40;;;;;;;6.32;2.33;;;;;;;;;;5047898;28;20031;-83
2023/10/22 14:31:07;;;;;;;4.47;2.03;;;;;;;;;;5053485;28;20032;-84
2023/10/22 14:33:33;;;;;;;4.05;2.20;;;;;;;;;;5056233;28;20027;-84
2023/10/22 14:36:00;;;;;;;4.70;2.20;;;;;;;;;;5067512;28;20056;-83
2023/10/22 14:38:25;;;;;;;3.10;1.77;;;;;;;;;;5064639;28;20035;-83
2023/10/22 14:40:51;;;;;;;3.83;1.77;;;;;;;;;;5062004;28;20028;-83